Time;durP1;ratioP1;P1;durP2;ratioP2;P2;SDS_P1;SDS_P2;PMS_P1;PMS_P2;Temp;Humidity;BMP_temperature;BMP_pressure;BME280_temperature;BME280_humidity;BME280_pressure;Samples;Min_cycle;Max_cycle;Signal;HPM_P1;HPM_P2
2022/02/11 00:02:22;;;;;;;35.00;18.60;;;;;;;2.73;89.04;99599.84;109005;1277;22428;-52
2022/02/11 00:07:46;;;;;;;29.70;18.40;;;;;;;2.78;89.20;99604.63;108931;1277;138310;-52
2022/02/11 00:10:14;;;;;;;30.70;17.30;;;;;;;2.80;89.18;99598.42;109004;1277;22409;-52
2022/02/11 00:12:44;;;;;;;31.00;17.60;;;;;;;2.82;89.23;99598.30;108937;1277;137985;-52
2022/02/11 00:15:36;;;;;;;36.40;18.40;;;;;;;2.85;89.14;99600.67;109038;1277;22449;-52
2022/02/11 00:18:05;;;;;;;28.60;16.10;;;;;;;2.86;89.09;99589.62;108808;1278;139254;-52
2022/02/11 00:20:34;;;;;;;29.10;17.80;;;;;;;2.88;89.04;99585.14;108979;1277;22420;-52
2022/02/11 00:23:06;;;;;;;34.70;18.30;;;;;;;2.90;89.09;99583.35;108958;1277;22461;-52
2022/02/11 00:25:38;;;;;;;29.50;17.10;;;;;;;2.90;88.97;99577.92;108920;1277;137334;-52
2022/02/11 00:33:50;;;;;;;24.50;16.70;;;;;;;2.85;88.93;99563.51;108972;1277;23291;-52
2022/02/11 00:36:22;;;;;;;21.50;14.80;;;;;;;2.86;88.81;99568.80;108904;1277;138719;-52
2022/02/11 00:53:20;;;;;;;21.50;14.30;;;;;;;2.86;88.71;99556.50;104470;1277;25533;-51
2022/02/11 01:04:00;;;;;;;19.90;13.20;;;;;;;2.89;89.26;99550.64;104747;1277;22601;-50
2022/02/11 01:06:37;;;;;;;24.20;15.00;;;;;;;2.91;89.32;99552.39;109165;1276;139379;-51
2022/02/11 01:09:06;;;;;;;20.20;13.60;;;;;;;2.92;89.12;99554.41;109183;1275;22280;-51
2022/02/11 01:14:10;;;;;;;20.20;14.00;;;;;;;2.95;89.14;99552.81;109082;1275;138919;-51
2022/02/11 01:16:48;;;;;;;21.60;14.20;;;;;;;2.97;89.07;99552.23;109224;1275;23253;-51
2022/02/11 01:21:59;;;;;;;18.90;13.20;;;;;;;3.01;89.14;99549.59;109286;1275;22429;-51
2022/02/11 01:25:03;;;;;;;21.20;13.30;;;;;;;3.02;89.01;99549.70;108960;1274;138862;-51
2022/02/11 01:30:57;;;;;;;20.50;13.50;;;;;;;3.06;88.73;99542.36;109256;1273;140420;-51
2022/02/11 01:57:12;;;;;;;29.10;15.90;;;;;;;3.07;87.87;99512.83;109308;1274;22421;-51
2022/02/11 02:29:25;;;;;;;26.30;15.40;;;;;;;3.08;86.94;99461.03;109276;1275;22450;-51
2022/02/11 02:37:10;;;;;;;21.70;14.00;;;;;;;3.06;86.62;99451.58;109243;1274;139179;-52
2022/02/11 02:50:46;;;;;;;16.90;11.50;;;;;;;3.11;86.30;99426.16;109173;1274;138007;-51
2022/02/11 02:58:58;;;;;;;19.50;11.40;;;;;;;3.15;85.91;99437.21;109242;1274;22452;-54
2022/02/11 03:16:10;;;;;;;15.90;10.60;;;;;;;3.18;84.99;99432.41;109354;1274;23153;-52
2022/02/11 03:35:01;;;;;;;19.60;12.40;;;;;;;3.27;84.60;99391.43;109295;1274;22459;-52
2022/02/11 03:49:01;;;;;;;20.80;11.60;;;;;;;3.21;84.00;99387.59;109258;1274;22491;-52
2022/02/11 04:56:58;;;;;;;21.00;11.20;;;;;;;3.00;82.56;99345.96;109130;1276;138218;-52
2022/02/11 04:59:38;;;;;;;21.60;12.10;;;;;;;3.00;82.47;99339.41;109228;1276;23259;-52
2022/02/11 05:02:06;;;;;;;18.90;12.20;;;;;;;2.98;82.51;99333.50;109045;1276;138794;-52
2022/02/11 05:04:34;;;;;;;21.50;11.70;;;;;;;2.98;82.51;99330.02;109193;1276;23863;-52
2022/02/11 05:07:03;;;;;;;20.10;12.00;;;;;;;2.97;82.48;99328.13;109227;1275;22474;-52
2022/02/11 05:09:32;;;;;;;21.50;13.10;;;;;;;2.98;82.62;99331.77;109043;1275;138396;-52
2022/02/11 05:12:03;;;;;;;22.00;13.40;;;;;;;2.98;82.53;99330.44;109267;1275;22254;-52
2022/02/11 05:14:31;;;;;;;27.10;15.10;;;;;;;3.00;82.69;99334.41;109093;1275;137812;-52
2022/02/11 05:16:59;;;;;;;29.30;15.70;;;;;;;3.00;82.66;99332.13;109277;1275;22411;-52
2022/02/11 05:19:27;;;;;;;22.70;13.70;;;;;;;3.01;82.44;99332.84;109195;1275;22398;-52
2022/02/11 05:21:55;;;;;;;23.20;13.80;;;;;;;2.99;82.59;99326.13;109018;1276;139575;-52
2022/02/11 05:24:23;;;;;;;21.90;13.40;;;;;;;3.01;82.57;99326.91;109153;1274;22664;-52
2022/02/11 05:26:50;;;;;;;17.80;12.40;;;;;;;3.00;82.38;99323.45;109139;1276;139943;-52
2022/02/11 05:29:18;;;;;;;19.50;12.60;;;;;;;3.01;82.35;99327.61;109162;1275;23258;-51
2022/02/11 05:31:47;;;;;;;19.40;12.10;;;;;;;3.01;82.39;99324.77;109065;1275;138396;-52
2022/02/11 05:34:15;;;;;;;23.10;11.80;;;;;;;3.01;82.29;99324.19;109271;1274;23178;-52
2022/02/11 05:36:43;;;;;;;18.90;12.40;;;;;;;3.02;82.36;99327.33;109232;1276;23317;-52
2022/02/11 05:39:11;;;;;;;18.30;11.80;;;;;;;3.03;82.46;99326.14;109025;1276;139445;-52
2022/02/11 05:41:39;;;;;;;17.60;11.70;;;;;;;3.05;82.39;99326.84;109236;1275;22249;-52
2022/02/11 05:44:07;;;;;;;17.50;12.00;;;;;;;3.06;82.39;99330.55;109146;1274;140090;-52
2022/02/11 05:46:36;;;;;;;18.40;11.90;;;;;;;3.09;82.25;99329.13;109215;1275;22500;-52
2022/02/11 05:49:04;;;;;;;20.00;13.30;;;;;;;3.10;82.22;99331.13;109070;1276;23272;-52
2022/02/11 05:51:32;;;;;;;21.80;14.00;;;;;;;3.11;82.12;99332.90;109099;1274;137379;-52
2022/02/11 05:54:00;;;;;;;29.80;15.60;;;;;;;3.13;82.01;99329.45;109231;1276;23099;-52
2022/02/11 05:56:28;;;;;;;25.50;15.70;;;;;;;3.13;82.01;99322.30;109153;1274;138558;-52
2022/02/11 05:58:56;;;;;;;25.40;15.00;;;;;;;3.14;81.97;99327.76;109251;1274;23515;-52
2022/02/11 06:01:24;;;;;;;24.80;14.80;;;;;;;3.15;81.84;99335.30;109227;1274;22485;-52
2022/02/11 06:03:52;;;;;;;20.20;12.50;;;;;;;3.16;81.82;99330.86;109107;1276;139171;-52
2022/02/11 06:06:20;;;;;;;17.40;12.10;;;;;;;3.17;81.87;99335.85;109129;1276;23699;-52
2022/02/11 06:08:48;;;;;;;16.50;11.50;;;;;;;3.18;81.81;99334.05;109045;1274;138493;-51
2022/02/11 06:11:16;;;;;;;14.10;9.90;;;;;;;3.20;81.77;99331.14;109217;1275;22456;-52
2022/02/11 06:13:50;;;;;;;15.20;10.70;;;;;;;3.23;81.88;99329.65;109148;1276;139616;-52
2022/02/11 06:16:18;;;;;;;14.50;9.70;;;;;;;3.25;81.61;99328.70;109133;1276;22545;-52
2022/02/11 06:18:46;;;;;;;17.00;10.80;;;;;;;3.27;81.68;99329.63;109084;1275;22608;-52
2022/02/11 06:21:14;;;;;;;17.20;11.60;;;;;;;3.29;81.58;99329.27;109048;1276;137773;-52
2022/02/11 06:23:45;;;;;;;18.90;11.70;;;;;;;3.31;81.49;99328.33;109239;1276;22470;-52
2022/02/11 06:26:13;;;;;;;15.80;11.20;;;;;;;3.32;81.26;99325.34;109154;1275;138103;-52
2022/02/11 06:28:41;;;;;;;13.30;10.70;;;;;;;3.35;81.50;99326.42;109168;1274;23325;-52
2022/02/11 06:31:11;;;;;;;22.10;11.80;;;;;;;3.36;81.38;99322.00;109227;1276;22470;-52
2022/02/11 06:33:39;;;;;;;15.40;11.10;;;;;;;3.37;81.28;99323.23;109181;1276;138170;-52
2022/02/11 06:36:07;;;;;;;17.70;11.30;;;;;;;3.39;81.01;99322.89;109067;1276;23408;-51
2022/02/11 06:38:35;;;;;;;25.20;12.60;;;;;;;3.42;81.09;99321.09;109074;1275;138860;-52
2022/02/11 06:41:04;;;;;;;19.10;11.80;;;;;;;3.44;80.76;99322.87;105741;1276;24285;-52
2022/02/11 06:43:32;;;;;;;17.70;11.30;;;;;;;3.45;81.06;99322.92;104794;1275;23027;-52
2022/02/11 06:46:01;;;;;;;20.10;11.80;;;;;;;3.52;80.89;99322.27;109096;1276;138782;-52
2022/02/11 06:48:29;;;;;;;21.60;11.30;;;;;;;3.57;81.02;99323.02;109209;1274;22548;-52
2022/02/11 06:50:58;;;;;;;19.40;11.20;;;;;;;3.62;80.92;99318.88;109134;1274;137565;-52
2022/02/11 06:53:26;;;;;;;21.80;11.50;;;;;;;3.68;80.96;99313.98;109265;1275;22253;-52
2022/02/11 06:55:54;;;;;;;19.60;12.10;;;;;;;3.73;81.10;99310.56;109046;1276;138323;-52
2022/02/11 06:58:22;;;;;;;18.40;11.00;;;;;;;3.76;80.80;99307.66;109170;1276;23212;-52
2022/02/11 07:00:51;;;;;;;15.20;11.40;;;;;;;3.82;80.67;99306.39;109176;1276;23231;-52
2022/02/11 07:03:19;;;;;;;14.70;10.20;;;;;;;3.89;80.80;99310.55;109148;1276;137363;-52
2022/02/11 07:05:47;;;;;;;15.90;9.70;;;;;;;3.95;80.69;99316.02;109259;1276;22515;-52
2022/02/11 07:08:15;;;;;;;13.50;9.70;;;;;;;4.02;80.54;99323.85;109069;1276;138481;-52
2022/02/11 07:10:43;;;;;;;16.00;10.70;;;;;;;4.07;80.33;99322.08;109219;1275;22449;-52
2022/02/11 07:13:13;;;;;;;15.80;10.20;;;;;;;4.14;80.30;99321.09;109248;1276;22490;-52
2022/02/11 07:15:42;;;;;;;13.80;9.30;;;;;;;4.21;80.36;99330.30;109104;1276;139698;-52
2022/02/11 07:18:10;;;;;;;13.00;8.90;;;;;;;4.27;79.97;99334.10;109219;1275;22441;-52
2022/02/11 07:20:38;;;;;;;13.20;9.10;;;;;;;4.34;79.54;99336.31;109159;1276;139216;-52
2022/02/11 07:23:07;;;;;;;12.00;8.90;;;;;;;4.40;79.59;99336.43;109236;1276;22430;-52
2022/02/11 07:25:35;;;;;;;16.50;10.10;;;;;;;4.43;79.38;99335.53;109224;1277;23520;-52
2022/02/11 07:28:04;;;;;;;15.00;9.70;;;;;;;4.47;79.10;99338.73;109101;1276;139249;-52
2022/02/11 07:30:32;;;;;;;17.90;10.00;;;;;;;4.48;78.97;99335.30;109238;1277;22425;-52
2022/02/11 07:33:00;;;;;;;14.70;10.10;;;;;;;4.48;78.70;99338.25;109146;1276;137472;-52
2022/02/11 07:35:28;;;;;;;17.00;10.60;;;;;;;4.50;78.97;99335.40;109207;1276;22454;-52
2022/02/11 07:37:56;;;;;;;17.50;10.40;;;;;;;4.51;78.80;99333.00;109093;1276;138218;-52
2022/02/11 07:40:24;;;;;;;18.70;11.70;;;;;;;4.56;78.67;99335.86;106813;1276;22561;-52
2022/02/11 07:42:53;;;;;;;16.90;10.10;;;;;;;4.59;78.80;99335.88;104765;1277;25491;-52
2022/02/11 07:45:27;;;;;;;16.80;9.80;;;;;;;4.64;78.48;99339.00;104753;1277;138398;-52
2022/02/11 07:47:56;;;;;;;18.10;11.20;;;;;;;4.69;79.04;99332.19;105046;1277;22570;-52
2022/02/11 07:50:24;;;;;;;21.80;11.90;;;;;;;4.74;78.86;99334.20;109000;1276;140425;-52
2022/02/11 07:52:52;;;;;;;21.40;12.10;;;;;;;4.78;78.74;99332.58;109208;1276;23198;-52
2022/02/11 07:55:22;;;;;;;23.60;12.60;;;;;;;4.84;78.55;99336.75;109207;1277;22445;-52
2022/02/11 07:57:50;;;;;;;19.80;12.10;;;;;;;4.87;78.40;99337.39;109100;1276;137476;-52
2022/02/11 08:00:23;;;;;;;23.90;12.90;;;;;;;4.88;78.26;99336.45;109279;1276;23371;-52
2022/02/11 08:02:51;;;;;;;21.10;13.10;;;;;;;4.86;78.50;99329.64;109123;1276;137849;-53
2022/02/11 08:05:19;;;;;;;22.00;12.10;;;;;;;4.90;78.07;99338.02;109242;1276;22476;-52
2022/02/11 08:07:47;;;;;;;23.00;14.10;;;;;;;4.91;77.89;99337.86;108990;1276;138835;-53
2022/02/11 08:10:15;;;;;;;21.90;13.10;;;;;;;4.91;78.09;99338.89;109252;1275;23140;-52
2022/02/11 08:12:43;;;;;;;20.00;13.40;;;;;;;4.91;78.05;99336.95;109233;1276;22439;-52
2022/02/11 08:15:11;;;;;;;20.80;14.00;;;;;;;4.90;77.77;99335.42;109184;1275;139308;-52
2022/02/11 08:17:41;;;;;;;19.90;13.40;;;;;;;4.89;78.00;99332.27;109283;1276;23230;-52
2022/02/11 08:20:09;;;;;;;21.70;13.80;;;;;;;4.87;78.33;99334.77;109087;1276;137683;-52
2022/02/11 08:22:38;;;;;;;21.80;13.40;;;;;;;4.86;78.00;99336.56;109294;1275;22461;-52
2022/02/11 08:25:06;;;;;;;19.40;14.20;;;;;;;4.86;78.02;99342.16;109264;1276;22608;-52
2022/02/11 08:27:34;;;;;;;26.80;15.60;;;;;;;4.85;77.97;99343.30;109212;1276;138075;-53
2022/02/11 08:30:02;;;;;;;22.10;13.30;;;;;;;4.85;78.11;99344.55;109320;1276;22451;-52
2022/02/11 08:32:30;;;;;;;21.50;13.90;;;;;;;4.85;78.21;99347.48;109181;1277;139971;-52
2022/02/11 08:34:58;;;;;;;21.60;13.90;;;;;;;4.86;78.32;99346.33;109314;1276;23536;-52
2022/02/11 08:37:27;;;;;;;21.00;12.60;;;;;;;4.87;78.44;99353.75;109274;1274;23165;-53
2022/02/11 08:39:56;;;;;;;18.40;13.20;;;;;;;4.89;78.74;99357.80;109214;1276;137984;-54
2022/02/11 08:42:24;;;;;;;22.00;14.80;;;;;;;4.89;78.44;99357.50;109277;1276;22493;-54
2022/02/11 08:44:52;;;;;;;22.30;13.00;;;;;;;4.91;78.68;99354.89;109172;1274;138185;-53
2022/02/11 08:47:26;;;;;;;24.00;14.10;;;;;;;4.95;78.57;99358.29;109307;1275;22508;-54
2022/02/11 08:49:54;;;;;;;21.60;14.60;;;;;;;4.97;78.63;99369.27;109187;1274;137524;-54
2022/02/11 08:52:25;;;;;;;27.70;15.20;;;;;;;4.99;78.75;99365.82;109303;1276;22445;-54
2022/02/11 08:54:57;;;;;;;24.90;14.10;;;;;;;5.01;78.82;99369.71;109304;1276;22464;-54
2022/02/11 08:57:29;;;;;;;22.20;14.10;;;;;;;5.02;78.37;99375.13;109163;1275;138476;-54
2022/02/11 08:59:57;;;;;;;25.90;15.20;;;;;;;5.02;78.34;99376.80;109125;1276;288850;-54
2022/02/11 09:03:39;;;;;;;23.10;13.80;;;;;;;5.04;78.44;99378.75;102049;1309;545450;-53
2022/02/11 09:06:08;;;;;;;23.30;14.00;;;;;;;5.03;78.03;99378.83;104372;1284;25200;-53
2022/02/11 09:08:40;;;;;;;23.40;14.30;;;;;;;5.01;78.35;99380.45;108345;1283;138481;-54
2022/02/11 09:11:08;;;;;;;21.00;13.60;;;;;;;5.01;77.88;99378.55;108447;1283;22467;-54
2022/02/11 09:13:36;;;;;;;21.80;13.20;;;;;;;5.00;78.40;99383.21;108478;1283;23184;-54
2022/02/11 09:16:04;;;;;;;24.60;13.20;;;;;;;5.01;78.07;99383.04;108303;1282;137312;-54
2022/02/11 09:18:32;;;;;;;20.60;14.00;;;;;;;5.01;78.28;99381.45;108584;1283;23217;-54
2022/02/11 09:21:00;;;;;;;23.20;14.40;;;;;;;5.01;78.23;99382.77;108594;1281;137675;-54
2022/02/11 09:23:28;;;;;;;26.70;16.30;;;;;;;5.01;78.34;99387.27;108690;1282;23144;-53
2022/02/11 09:25:56;;;;;;;27.50;16.50;;;;;;;5.00;78.25;99386.58;108595;1282;138071;-54
2022/02/11 09:28:25;;;;;;;27.80;17.70;;;;;;;4.99;78.10;99387.74;108416;1284;23232;-54
2022/02/11 09:30:52;;;;;;;35.90;18.70;;;;;;;5.00;78.48;99384.09;108616;1283;22493;-54
2022/02/11 09:33:21;;;;;;;25.40;16.20;;;;;;;5.01;78.11;99385.70;108545;1282;137496;-54
2022/02/11 09:35:49;;;;;;;27.40;15.90;;;;;;;5.02;78.41;99380.36;109220;1277;22481;-54
2022/02/11 09:38:22;;;;;;;25.50;15.60;;;;;;;5.03;78.51;99382.93;109179;1276;139423;-53
2022/02/11 09:40:51;;;;;;;24.20;15.80;;;;;;;5.05;78.69;99383.74;109332;1276;23259;-54
2022/02/11 09:43:25;;;;;;;24.20;16.50;;;;;;;5.07;78.62;99387.36;109293;1275;22470;-54
2022/02/11 09:45:53;;;;;;;21.70;14.50;;;;;;;5.08;78.63;99389.38;109215;1276;137829;-54
2022/02/11 09:48:23;;;;;;;26.70;16.50;;;;;;;5.09;78.45;99388.66;109154;1276;22434;-54
2022/02/11 09:50:53;;;;;;;26.30;17.10;;;;;;;5.11;78.76;99389.68;109190;1276;138443;-54
2022/02/11 09:53:27;;;;;;;27.00;18.00;;;;;;;5.12;78.87;99393.50;109334;1276;22438;-54
2022/02/11 09:55:56;;;;;;;26.40;17.00;;;;;;;5.13;79.03;99394.73;109156;1276;137440;-54
2022/02/11 09:58:24;;;;;;;28.00;19.00;;;;;;;5.14;78.98;99397.29;109234;1276;22453;-54
2022/02/11 10:00:53;;;;;;;26.70;17.20;;;;;;;5.14;78.92;99400.37;109337;1276;23428;-54
2022/02/11 10:03:25;;;;;;;32.30;19.30;;;;;;;5.12;79.18;99399.02;109200;1274;139487;-54
2022/02/11 10:05:57;;;;;;;30.10;20.10;;;;;;;5.14;79.31;99401.23;109361;1274;22495;-54
2022/02/11 10:08:26;;;;;;;29.20;18.00;;;;;;;5.15;79.14;99404.67;109276;1274;139019;-54
2022/02/11 10:10:57;;;;;;;28.80;17.60;;;;;;;5.16;79.36;99413.56;109371;1274;22428;-54
2022/02/11 10:13:25;;;;;;;26.40;17.20;;;;;;;5.18;79.13;99414.98;109372;1274;23129;-54
2022/02/11 10:15:57;;;;;;;27.80;17.60;;;;;;;5.18;79.20;99412.98;109235;1275;138415;-54
2022/02/11 10:18:29;;;;;;;27.80;17.10;;;;;;;5.18;79.45;99419.65;109339;1274;22697;-54
2022/02/11 10:21:20;;;;;;;29.00;16.90;;;;;;;5.18;79.35;99420.98;109235;1274;137856;-55
2022/02/11 10:23:51;;;;;;;28.70;18.80;;;;;;;5.16;79.22;99424.73;109368;1274;22439;-54
2022/02/11 10:26:27;;;;;;;25.30;16.70;;;;;;;5.13;79.73;99425.80;109240;1274;138121;-54
2022/02/11 10:28:56;;;;;;;27.20;17.00;;;;;;;5.12;79.94;99427.77;109362;1274;23341;-54
2022/02/11 10:31:26;;;;;;;26.20;15.70;;;;;;;5.10;79.70;99425.38;109378;1274;23202;-54
2022/02/11 10:34:05;;;;;;;21.40;14.50;;;;;;;5.09;80.19;99431.28;109171;1274;139519;-54
2022/02/11 10:36:36;;;;;;;27.00;17.10;;;;;;;5.06;80.09;99424.50;109343;1275;22508;-54
2022/02/11 10:39:30;;;;;;;32.40;18.30;;;;;;;5.11;80.17;99425.83;109265;1274;138537;-52
2022/02/11 10:41:59;;;;;;;25.20;15.90;;;;;;;5.14;80.41;99431.82;109252;1274;23145;-53
2022/02/11 10:44:29;;;;;;;24.30;14.70;;;;;;;5.15;80.15;99429.91;109234;1274;139746;-52
2022/02/11 10:47:00;;;;;;;25.00;15.70;;;;;;;5.20;80.43;99431.54;109349;1274;22410;-53
2022/02/11 10:49:32;;;;;;;29.20;17.30;;;;;;;5.23;80.46;99436.27;109359;1274;22875;-53
2022/02/11 10:52:13;;;;;;;28.10;16.70;;;;;;;5.24;80.51;99439.34;109230;1274;137327;-53
2022/02/11 10:54:42;;;;;;;30.40;18.60;;;;;;;5.23;80.30;99434.73;109347;1274;23065;-53
2022/02/11 10:57:15;;;;;;;26.20;16.30;;;;;;;5.26;80.09;99435.04;109245;1274;137736;-53
2022/02/11 10:59:44;;;;;;;29.10;17.90;;;;;;;5.25;80.20;99433.86;109331;1274;23237;-52
2022/02/11 11:02:15;;;;;;;30.10;18.40;;;;;;;5.30;80.36;99443.73;109245;1274;138414;-53
2022/02/11 11:04:47;;;;;;;26.40;16.60;;;;;;;5.31;80.44;99445.63;109316;1274;23205;-52
2022/02/11 11:07:18;;;;;;;30.50;17.50;;;;;;;5.33;80.00;99446.65;109379;1274;23189;-53
2022/02/11 11:09:59;;;;;;;23.80;14.10;;;;;;;5.33;79.88;99449.89;109313;1274;138327;-52
2022/02/11 11:12:28;;;;;;;24.40;14.50;;;;;;;5.32;80.21;99450.61;109345;1274;22491;-52
2022/02/11 11:14:59;;;;;;;21.70;14.60;;;;;;;5.31;80.29;99451.78;109291;1274;138350;-52
2022/02/11 11:17:27;;;;;;;27.40;14.10;;;;;;;5.30;80.25;99454.54;109348;1274;22879;-53
2022/02/11 11:19:55;;;;;;;26.30;14.60;;;;;;;5.27;80.42;99455.77;109108;1274;138194;-53
2022/02/11 11:22:44;;;;;;;28.30;16.70;;;;;;;5.27;80.20;99460.34;109199;1274;23558;-53
2022/02/11 11:25:11;;;;;;;26.40;16.70;;;;;;;5.27;80.50;99454.89;109223;1274;22583;-53
2022/02/11 11:27:44;;;;;;;19.90;14.00;;;;;;;5.28;80.61;99456.80;109235;1274;137515;-52
2022/02/11 11:30:25;;;;;;;20.40;13.90;;;;;;;5.28;80.55;99459.13;109399;1274;22776;-53
2022/02/11 11:33:06;;;;;;;24.40;14.90;;;;;;;5.27;80.49;99460.17;109239;1274;138262;-52
2022/02/11 11:36:03;;;;;;;22.30;14.20;;;;;;;5.26;80.82;99460.14;109338;1274;22456;-53
2022/02/11 11:38:38;;;;;;;24.30;13.40;;;;;;;5.27;80.64;99460.30;109229;1274;138053;-53
2022/02/11 11:41:20;;;;;;;24.10;15.00;;;;;;;5.28;80.66;99459.79;109337;1274;22453;-53
2022/02/11 11:43:57;;;;;;;19.60;13.00;;;;;;;5.29;80.84;99462.14;109242;1274;139028;-53
2022/02/11 11:46:30;;;;;;;21.00;14.60;;;;;;;5.30;80.55;99453.73;109375;1274;22496;-53
2022/02/11 11:49:04;;;;;;;21.30;13.60;;;;;;;5.35;80.68;99458.83;109361;1274;22440;-53
2022/02/11 11:51:35;;;;;;;18.80;12.40;;;;;;;5.36;80.51;99458.27;109233;1274;138013;-53
2022/02/11 11:54:15;;;;;;;20.80;13.70;;;;;;;5.36;80.55;99461.55;108994;1274;138357;-53
2022/02/11 11:56:53;;;;;;;21.50;14.00;;;;;;;5.36;80.26;99462.64;109222;1276;22398;-53
2022/02/11 11:59:25;;;;;;;22.40;13.30;;;;;;;5.35;79.67;99467.68;109159;1277;138288;-53
2022/02/11 12:02:04;;;;;;;17.90;11.60;;;;;;;5.32;79.14;99465.11;109239;1276;22492;-53
2022/02/11 12:04:41;;;;;;;20.60;12.70;;;;;;;5.33;78.80;99463.06;109344;1276;22474;-53
2022/02/11 12:07:11;;;;;;;15.30;10.50;;;;;;;5.33;78.96;99459.96;108927;1276;138179;-52
2022/02/11 12:09:41;;;;;;;16.80;10.60;;;;;;;5.37;78.38;99464.00;109283;1277;22550;-53
2022/02/11 12:12:10;;;;;;;19.50;12.20;;;;;;;5.38;77.99;99466.11;109150;1277;138151;-52
2022/02/11 12:14:40;;;;;;;15.90;10.50;;;;;;;5.40;77.89;99468.33;109310;1277;22246;-52
2022/02/11 12:17:09;;;;;;;17.10;10.90;;;;;;;5.43;77.94;99467.60;109337;1276;22461;-52
2022/02/11 12:19:38;;;;;;;16.60;11.30;;;;;;;5.46;77.88;99469.56;109311;1276;22446;-53
2022/02/11 12:22:06;;;;;;;18.00;11.20;;;;;;;5.49;77.30;99469.73;108879;1276;139831;-53
2022/02/11 12:27:30;;;;;;;16.00;10.90;;;;;;;5.51;77.14;99474.77;109158;1276;137786;-53
2022/02/11 12:30:05;;;;;;;18.20;11.30;;;;;;;5.52;76.83;99482.83;109320;1276;22472;-52
2022/02/11 12:32:43;;;;;;;15.80;10.40;;;;;;;5.49;76.34;99483.44;109175;1277;139566;-52
2022/02/11 12:35:12;;;;;;;14.30;9.80;;;;;;;5.45;76.55;99482.50;109282;1276;23310;-52
2022/02/11 12:37:42;;;;;;;14.00;10.10;;;;;;;5.44;76.43;99481.67;109307;1276;22671;-52
2022/02/11 12:40:22;;;;;;;16.30;10.10;;;;;;;5.45;76.73;99484.20;109189;1277;139345;-53
2022/02/11 12:42:54;;;;;;;19.60;10.60;;;;;;;5.48;76.82;99488.02;109251;1277;22467;-52
2022/02/11 12:45:29;;;;;;;13.90;10.40;;;;;;;5.52;76.87;99484.61;109214;1277;137612;-52
2022/02/11 12:47:57;;;;;;;18.60;11.20;;;;;;;5.56;77.00;99485.90;109340;1276;22472;-52
2022/02/11 12:50:34;;;;;;;17.50;10.40;;;;;;;5.60;76.70;99485.10;108992;1276;138324;-52
2022/02/11 12:53:16;;;;;;;15.00;10.30;;;;;;;5.64;76.65;99487.07;109002;1277;23432;-52
2022/02/11 12:55:50;;;;;;;17.30;9.60;;;;;;;5.65;76.04;99482.57;109325;1276;22455;-52
2022/02/11 12:58:19;;;;;;;20.70;11.40;;;;;;;5.67;76.06;99482.34;109183;1277;137793;-53
2022/02/11 13:00:48;;;;;;;14.70;10.10;;;;;;;5.67;76.40;99481.59;109269;1276;23570;-52
2022/02/11 13:03:18;;;;;;;17.40;10.60;;;;;;;5.71;75.83;99480.89;109257;1276;139380;-53
2022/02/11 13:05:49;;;;;;;15.90;10.60;;;;;;;5.73;75.41;99480.20;109382;1276;22501;-53
2022/02/11 13:08:22;;;;;;;14.30;8.90;;;;;;;5.79;75.52;99487.92;109437;1275;23003;-52
2022/02/11 13:11:04;;;;;;;17.10;8.40;;;;;;;5.84;74.72;99487.59;108987;1277;139202;-52
2022/02/11 13:13:34;;;;;;;13.50;8.00;;;;;;;5.89;74.72;99487.30;109390;1276;23221;-52
2022/02/11 13:16:05;;;;;;;11.50;6.10;;;;;;;5.92;74.22;99487.87;108958;1276;138581;-53
2022/02/11 13:18:38;;;;;;;12.70;7.50;;;;;;;5.96;74.25;99486.82;109269;1276;22557;-53
2022/02/11 13:21:09;;;;;;;11.20;7.20;;;;;;;5.99;73.68;99490.81;109280;1276;22270;-53
2022/02/11 13:23:37;;;;;;;15.20;7.60;;;;;;;6.04;73.66;99490.06;109175;1276;138251;-53
2022/02/11 13:26:10;;;;;;;11.90;7.60;;;;;;;6.07;73.21;99494.73;109375;1276;22537;-53
2022/02/11 13:28:48;;;;;;;12.70;7.20;;;;;;;6.09;72.78;99499.61;109241;1276;137132;-53
2022/02/11 13:31:18;;;;;;;13.50;7.20;;;;;;;6.12;72.61;99499.67;109313;1277;23062;-53
2022/02/11 13:33:46;;;;;;;14.30;8.20;;;;;;;6.13;72.37;99499.08;109253;1276;138416;-53
2022/02/11 13:36:24;;;;;;;10.50;6.20;;;;;;;6.14;72.22;99499.20;109356;1275;23142;-53
2022/02/11 13:38:52;;;;;;;6.40;4.60;;;;;;;6.14;71.45;99503.92;109393;1276;22600;-52
2022/02/11 13:41:29;;;;;;;14.20;6.30;;;;;;;6.14;71.37;99500.77;109270;1275;139458;-53
2022/02/11 13:44:04;;;;;;;8.70;5.90;;;;;;;6.19;70.87;99502.71;109282;1276;23234;-53
2022/02/11 13:46:53;;;;;;;7.60;4.30;;;;;;;6.19;70.05;99498.21;109092;1277;138435;-53
2022/02/11 13:49:22;;;;;;;9.90;3.90;;;;;;;6.18;70.04;99501.96;109337;1275;22543;-53
2022/02/11 13:55:03;;;;;;;3.90;2.90;;;;;;;6.17;69.04;99502.81;109274;1276;22259;-52
2022/02/11 13:57:33;;;;;;;5.80;3.20;;;;;;;6.17;68.36;99500.93;109244;1276;138912;-53
2022/02/11 14:00:32;;;;;;;6.00;3.10;;;;;;;6.18;68.04;99504.89;109411;1276;22439;-52
2022/02/11 14:03:00;;;;;;;4.10;2.30;;;;;;;6.16;67.60;99505.20;109325;1277;22489;-53
2022/02/11 14:05:29;;;;;;;7.20;2.80;;;;;;;6.15;67.31;99509.66;109229;1276;138237;-52
2022/02/11 14:07:58;;;;;;;4.80;3.20;;;;;;;6.13;67.05;99510.64;109379;1276;22413;-52
2022/02/11 14:10:26;;;;;;;6.10;2.90;;;;;;;6.11;67.30;99509.25;109220;1275;136944;-53
2022/02/11 14:13:07;;;;;;;3.80;1.90;;;;;;;6.11;66.60;99516.20;109336;1276;22595;-52
2022/02/11 14:15:36;;;;;;;4.70;2.00;;;;;;;6.09;65.65;99520.88;109150;1277;138426;-53
2022/02/11 14:18:04;;;;;;;4.00;2.50;;;;;;;6.09;65.36;99522.80;109337;1275;22404;-52
2022/02/11 14:20:52;;;;;;;9.00;5.20;;;;;;;6.07;64.96;99531.85;109332;1276;22436;-52
2022/02/11 14:23:21;;;;;;;21.00;10.80;;;;;;;6.02;65.16;99536.98;109276;1277;138735;-52
2022/02/11 14:25:49;;;;;;;21.30;11.60;;;;;;;5.91;65.57;99544.71;109342;1276;23234;-53
2022/02/11 14:28:18;;;;;;;14.00;8.50;;;;;;;5.79;65.72;99545.84;109230;1276;138272;-52
2022/02/11 14:30:46;;;;;;;7.40;5.50;;;;;;;5.68;66.23;99545.09;109367;1275;22486;-52
2022/02/11 14:33:14;;;;;;;6.90;3.40;;;;;;;5.60;66.01;99552.92;109349;1276;22496;-52
2022/02/11 14:35:42;;;;;;;4.00;2.80;;;;;;;5.54;65.62;99560.33;109242;1277;138632;-52
2022/02/11 14:38:10;;;;;;;5.00;2.60;;;;;;;5.47;65.29;99567.11;109327;1275;23257;-52
2022/02/11 14:41:45;;;;;;;5.30;2.90;;;;;;;5.38;65.11;99575.64;109201;1277;136980;-52
2022/02/11 14:43:26;;;;;;;5.80;3.20;;;;;;;5.29;64.95;99578.46;109343;1276;22567;-52
2022/02/11 14:45:54;;;;;;;11.10;4.90;;;;;;;5.21;64.50;99583.32;109254;1276;137109;-52
2022/02/11 14:48:24;;;;;;;5.90;3.10;;;;;;;5.12;64.91;99583.73;109338;1276;23730;-52
2022/02/11 14:50:51;;;;;;;5.70;3.60;;;;;;;5.07;65.40;99582.31;109307;1275;23436;-52
2022/02/11 14:53:19;;;;;;;16.50;10.00;;;;;;;5.01;65.67;99581.00;109241;1277;138571;-52
2022/02/11 14:55:47;;;;;;;10.30;6.50;;;;;;;4.96;66.19;99589.89;109357;1275;22459;-52
2022/02/11 14:58:15;;;;;;;12.50;6.40;;;;;;;4.93;66.70;99590.08;109207;1275;138884;-52
2022/02/11 15:00:43;;;;;;;10.30;4.90;;;;;;;4.85;66.64;99586.25;109374;1275;23157;-52
2022/02/11 15:03:12;;;;;;;9.60;4.70;;;;;;;4.83;67.02;99590.73;109161;1276;22404;-52
2022/02/11 15:05:40;;;;;;;7.40;4.70;;;;;;;4.80;67.24;99597.23;109176;1276;137644;-52
2022/02/11 15:08:08;;;;;;;7.00;4.20;;;;;;;4.75;67.25;99602.80;109307;1276;23345;-52
2022/02/11 15:10:36;;;;;;;5.30;3.90;;;;;;;4.68;67.65;99608.41;109158;1276;139332;-52
2022/02/11 15:13:08;;;;;;;8.90;5.60;;;;;;;4.61;68.39;99611.32;109277;1276;22481;-52
2022/02/11 15:15:56;;;;;;;20.90;11.50;;;;;;;4.53;68.20;99611.73;109088;1276;137890;-51
2022/02/11 15:18:26;;;;;;;18.70;12.50;;;;;;;4.47;68.40;99610.36;109272;1276;22247;-51
2022/02/11 15:20:54;;;;;;;11.10;7.30;;;;;;;4.42;68.45;99610.90;109302;1276;22573;-51
2022/02/11 15:23:26;;;;;;;10.90;8.00;;;;;;;4.36;68.90;99609.21;109167;1276;139013;-51
2022/02/11 15:25:54;;;;;;;9.10;6.10;;;;;;;4.30;69.29;99612.58;109316;1276;22476;-51